createdAt,value
2022-12-24T00:00:07.794Z,79.17
2022-12-24T00:02:40.334Z,79.39
2022-12-24T00:05:12.569Z,79.75
2022-12-24T00:07:44.606Z,79.98
2022-12-24T00:10:16.635Z,80.12
2022-12-24T00:12:48.937Z,80.02
2022-12-24T00:15:20.996Z,79.87
2022-12-24T00:17:53.107Z,79.92
2022-12-24T00:20:25.090Z,80.25
2022-12-24T00:22:57.183Z,80.40
2022-12-24T00:25:29.490Z,80.45
2022-12-24T00:28:01.450Z,80.36
2022-12-24T00:30:33.563Z,80.57
2022-12-24T00:33:05.896Z,80.74
2022-12-24T00:35:40.106Z,80.71
2022-12-24T00:38:12.081Z,80.96
2022-12-24T00:40:43.909Z,80.91
2022-12-24T00:43:16.020Z,80.85
2022-12-24T00:45:48.866Z,80.81
2022-12-24T00:48:21.183Z,80.19
2022-12-24T00:50:53.359Z,80.21
2022-12-24T00:53:25.445Z,79.79
2022-12-24T00:55:57.521Z,79.42
2022-12-24T00:58:29.381Z,79.10
2022-12-24T01:01:01.503Z,79.05
2022-12-24T01:03:37.176Z,78.33
2022-12-24T01:06:12.243Z,78.13
2022-12-24T01:08:44.781Z,78.12
2022-12-24T01:11:17.171Z,78.13
2022-12-24T01:13:49.187Z,78.38
2022-12-24T01:16:22.620Z,78.52
2022-12-24T01:18:54.977Z,78.79
2022-12-24T01:21:27.354Z,79.06
2022-12-24T01:23:59.637Z,79.21
2022-12-24T01:26:31.998Z,79.35
2022-12-24T01:29:04.287Z,79.21
2022-12-24T01:31:36.660Z,79.32
2022-12-24T01:34:08.596Z,79.70
2022-12-24T01:36:40.986Z,79.68
2022-12-24T01:39:13.030Z,79.47
2022-12-24T01:42:02.540Z,79.64
2022-12-24T01:44:37.687Z,79.68
2022-12-24T01:47:21.153Z,79.82
2022-12-24T01:49:58.857Z,80.11
2022-12-24T01:52:33.832Z,79.93
2022-12-24T01:55:08.989Z,80.16
2022-12-24T01:57:45.334Z,80.36
2022-12-24T02:00:18.402Z,80.40
2022-12-24T02:02:53.135Z,80.50
2022-12-24T02:05:33.788Z,80.68
2022-12-24T02:08:06.530Z,80.56
2022-12-24T02:10:38.845Z,80.44
2022-12-24T02:13:11.369Z,80.41
2022-12-24T02:15:47.872Z,80.41
2022-12-24T02:18:25.999Z,80.51
2022-12-24T02:21:06.396Z,80.35
2022-12-24T02:23:56.139Z,80.27
2022-12-24T02:26:47.000Z,80.19
2022-12-24T02:29:33.658Z,80.17
2022-12-24T02:32:23.497Z,80.00
2022-12-24T02:35:14.773Z,80.08
2022-12-24T02:37:52.268Z,79.92
2022-12-24T02:40:27.107Z,79.92
2022-12-24T02:43:02.106Z,79.60
2022-12-24T02:45:36.977Z,79.50
2022-12-24T02:48:10.445Z,79.37
2022-12-24T02:50:44.032Z,78.96
2022-12-24T02:53:16.083Z,79.23
2022-12-24T02:56:07.484Z,79.23
2022-12-24T02:59:00.741Z,79.48
2022-12-24T03:01:38.405Z,79.62
2022-12-24T03:04:16.749Z,79.76
2022-12-24T03:07:03.586Z,79.72
2022-12-24T03:09:38.414Z,79.92
2022-12-24T03:12:13.528Z,79.78
2022-12-24T03:14:47.490Z,79.89
2022-12-24T03:17:21.015Z,79.86
2022-12-24T03:19:54.338Z,79.73
2022-12-24T03:22:28.501Z,79.72
2022-12-24T03:25:00.783Z,79.69
2022-12-24T03:27:37.305Z,79.70
2022-12-24T03:30:15.051Z,79.51
2022-12-24T03:32:48.448Z,79.45
2022-12-24T03:35:20.397Z,79.25
2022-12-24T03:37:52.637Z,79.13
2022-12-24T03:40:24.671Z,79.35
2022-12-24T03:42:56.707Z,79.43
2022-12-24T03:45:28.759Z,79.46
2022-12-24T03:48:00.846Z,79.53
2022-12-24T03:50:32.967Z,79.64
2022-12-24T03:53:04.990Z,79.51
2022-12-24T03:55:36.833Z,79.39
2022-12-24T03:58:08.862Z,79.17
2022-12-24T04:00:40.957Z,79.29
2022-12-24T04:03:12.978Z,79.22
2022-12-24T04:05:45.148Z,79.16
2022-12-24T04:08:17.490Z,79.07
2022-12-24T04:10:49.595Z,79.04
2022-12-24T04:13:21.541Z,79.15
2022-12-24T04:16:01.953Z,79.17
2022-12-24T04:18:34.275Z,78.94
2022-12-24T04:21:08.069Z,78.95
2022-12-24T04:23:42.108Z,79.08
2022-12-24T04:26:15.130Z,79.24
2022-12-24T04:28:47.094Z,79.18
2022-12-24T04:31:19.674Z,79.15
2022-12-24T04:33:53.463Z,79.10
2022-12-24T04:36:25.493Z,79.24
2022-12-24T04:38:57.387Z,79.19
2022-12-24T04:41:29.325Z,79.34
2022-12-24T04:44:01.295Z,79.42
2022-12-24T04:46:33.793Z,79.62
2022-12-24T04:49:05.899Z,79.69
2022-12-24T04:51:38.119Z,79.97
2022-12-24T04:54:10.129Z,80.06
2022-12-24T04:56:42.249Z,79.82
2022-12-24T04:59:14.294Z,79.99
2022-12-24T05:01:46.620Z,79.80
2022-12-24T05:04:18.722Z,79.80
2022-12-24T05:06:50.897Z,80.00
2022-12-24T05:09:22.715Z,80.22
2022-12-24T05:11:54.660Z,80.47
2022-12-24T05:14:26.730Z,80.49
2022-12-24T05:16:58.932Z,80.72
2022-12-24T05:19:30.952Z,80.80
2022-12-24T05:22:20.504Z,80.90
2022-12-24T05:25:10.067Z,80.93
2022-12-24T05:27:47.514Z,80.97
2022-12-24T05:30:16.668Z,80.73
2022-12-24T05:32:48.976Z,80.79
2022-12-24T05:35:21.296Z,80.73
2022-12-24T05:37:53.209Z,80.66
2022-12-24T05:40:25.095Z,80.78
2022-12-24T05:42:57.186Z,80.85
2022-12-24T05:45:29.559Z,81.08
2022-12-24T05:48:01.885Z,80.87
2022-12-24T05:50:33.837Z,80.87
2022-12-24T05:53:07.905Z,80.92
2022-12-24T05:55:39.814Z,80.88
2022-12-24T05:58:11.974Z,80.64
2022-12-24T06:00:44.251Z,80.78
2022-12-24T06:03:16.868Z,80.64
2022-12-24T06:05:48.829Z,80.66
2022-12-24T06:08:21.067Z,80.60
2022-12-24T06:10:58.169Z,80.72
2022-12-24T06:13:31.290Z,80.52
2022-12-24T06:16:05.542Z,80.51
2022-12-24T06:18:38.823Z,80.56
2022-12-24T06:21:11.723Z,80.56
2022-12-24T06:23:45.632Z,80.88
2022-12-24T06:26:22.618Z,80.94
2022-12-24T06:28:54.873Z,81.17
2022-12-24T06:31:27.510Z,81.28
2022-12-24T06:33:59.792Z,81.10
2022-12-24T06:36:32.014Z,81.22
2022-12-24T06:39:04.768Z,81.23
2022-12-24T06:41:37.590Z,81.18
2022-12-24T06:44:10.793Z,81.16
2022-12-24T06:46:43.138Z,81.38
2022-12-24T06:49:15.402Z,81.35
2022-12-24T06:51:48.064Z,81.37
2022-12-24T06:54:20.362Z,81.23
2022-12-24T06:56:52.907Z,81.25
2022-12-24T06:59:25.230Z,81.26
2022-12-24T07:01:58.068Z,80.91
2022-12-24T07:04:31.143Z,81.06
2022-12-24T07:07:03.137Z,81.34
2022-12-24T07:09:35.283Z,81.08
2022-12-24T07:12:07.508Z,81.44
2022-12-24T07:14:39.532Z,80.89
2022-12-24T07:17:11.912Z,81.13
2022-12-24T07:19:44.159Z,81.30
2022-12-24T07:22:16.439Z,81.16
2022-12-24T07:24:48.751Z,81.30
2022-12-24T07:27:21.261Z,81.17
2022-12-24T07:29:53.348Z,81.47
2022-12-24T07:32:26.239Z,81.13
2022-12-24T07:34:58.668Z,81.46
2022-12-24T07:37:32.695Z,81.35
2022-12-24T07:40:07.381Z,81.42
2022-12-24T07:42:39.645Z,81.46
2022-12-24T07:45:13.000Z,81.44
2022-12-24T07:47:45.046Z,81.49
2022-12-24T07:50:17.399Z,81.48
2022-12-24T07:52:49.417Z,81.52
2022-12-24T07:55:21.361Z,81.49
2022-12-24T07:57:53.625Z,81.44
2022-12-24T08:00:26.234Z,81.61
2022-12-24T08:03:00.508Z,81.69
2022-12-24T08:05:37.359Z,81.34
2022-12-24T08:08:09.869Z,81.45
2022-12-24T08:10:43.242Z,81.56
2022-12-24T08:13:15.547Z,81.46
2022-12-24T08:15:47.663Z,81.31
2022-12-24T08:18:20.050Z,81.43
2022-12-24T08:20:52.377Z,81.21
2022-12-24T08:23:24.572Z,81.55
2022-12-24T08:25:57.065Z,81.51
2022-12-24T08:28:29.117Z,81.01
2022-12-24T08:31:01.991Z,81.29
2022-12-24T08:33:34.665Z,81.32
2022-12-24T08:36:07.260Z,81.13
2022-12-24T08:38:39.616Z,81.61
2022-12-24T08:41:11.715Z,80.84
2022-12-24T08:43:43.986Z,80.92
2022-12-24T08:46:16.212Z,81.30
2022-12-24T08:48:48.276Z,81.25
2022-12-24T08:51:20.671Z,81.22
2022-12-24T08:53:53.021Z,81.43
2022-12-24T08:56:25.237Z,81.11
2022-12-24T08:58:57.433Z,81.09
2022-12-24T09:01:29.626Z,81.15
2022-12-24T09:04:03.567Z,81.06
2022-12-24T09:06:36.586Z,81.51
2022-12-24T09:09:09.151Z,81.45
2022-12-24T09:11:41.111Z,81.60
2022-12-24T09:14:13.546Z,81.46
2022-12-24T09:16:45.787Z,81.33
2022-12-24T09:19:18.452Z,81.17
2022-12-24T09:21:51.198Z,81.40
2022-12-24T09:24:23.779Z,81.09
2022-12-24T09:26:58.149Z,81.10
2022-12-24T09:29:29.455Z,81.38
2022-12-24T09:32:01.791Z,81.47
2022-12-24T09:34:33.896Z,81.28
2022-12-24T09:37:06.458Z,81.34
2022-12-24T09:39:38.594Z,81.08
2022-12-24T09:42:13.504Z,81.07
2022-12-24T09:44:58.852Z,80.98
2022-12-24T09:47:53.420Z,81.02
2022-12-24T09:50:31.503Z,80.42
2022-12-24T09:53:06.957Z,80.73
2022-12-24T09:55:54.871Z,80.40
2022-12-24T09:58:30.465Z,80.48
2022-12-24T10:01:03.151Z,80.48
2022-12-24T10:03:35.662Z,80.45
2022-12-24T10:06:28.530Z,80.61
2022-12-24T10:09:18.381Z,80.70
2022-12-24T10:12:12.530Z,80.47
2022-12-24T10:15:23.321Z,80.59
2022-12-24T10:18:16.541Z,80.50
2022-12-24T10:21:10.837Z,80.53
2022-12-24T10:23:54.632Z,80.67
2022-12-24T10:26:29.829Z,80.74
2022-12-24T10:29:04.924Z,80.53
2022-12-24T10:31:43.406Z,80.70
2022-12-24T10:34:21.035Z,80.64
2022-12-24T10:36:53.853Z,80.86
2022-12-24T10:39:27.928Z,81.00
2022-12-24T10:42:01.881Z,81.35
2022-12-24T10:44:35.738Z,81.34
2022-12-24T10:47:10.910Z,81.41
2022-12-24T10:50:04.010Z,81.26
2022-12-24T10:52:39.648Z,81.43
2022-12-24T10:55:20.707Z,81.19
2022-12-24T10:58:04.525Z,81.16
2022-12-24T11:00:37.610Z,81.49
2022-12-24T11:03:21.301Z,81.22
2022-12-24T11:06:13.027Z,80.80
2022-12-24T11:08:46.325Z,81.01
2022-12-24T11:11:21.136Z,81.02
2022-12-24T11:13:56.980Z,81.27
2022-12-24T11:16:37.696Z,81.26
2022-12-24T11:19:13.012Z,80.87
2022-12-24T11:21:46.375Z,79.94
2022-12-24T11:24:33.521Z,79.82
2022-12-24T11:27:26.394Z,79.96
2022-12-24T11:30:17.849Z,80.36
2022-12-24T11:32:52.719Z,80.22
2022-12-24T11:35:26.982Z,80.51
2022-12-24T11:38:07.853Z,80.60
2022-12-24T11:40:42.898Z,81.07
2022-12-24T11:43:20.276Z,81.36
2022-12-24T11:45:58.031Z,81.78
2022-12-24T11:48:35.554Z,81.87
2022-12-24T11:51:10.613Z,81.55
2022-12-24T11:53:51.453Z,81.96
2022-12-24T11:56:44.363Z,82.68
2022-12-24T11:59:31.991Z,82.77
2022-12-24T12:02:18.790Z,82.69
2022-12-24T12:04:56.932Z,81.85
2022-12-24T12:07:31.911Z,82.24
2022-12-24T12:10:19.155Z,82.23
2022-12-24T12:12:59.897Z,82.55
2022-12-24T12:15:37.597Z,82.86
2022-12-24T12:18:13.346Z,82.83
2022-12-24T12:20:51.691Z,83.11
2022-12-24T12:23:26.783Z,83.40
2022-12-24T12:26:11.091Z,83.13
2022-12-24T12:28:55.670Z,83.35
2022-12-24T12:31:39.943Z,83.31
2022-12-24T12:34:17.875Z,83.58
2022-12-24T12:36:57.631Z,83.58
2022-12-24T12:39:31.862Z,83.49
2022-12-24T12:42:06.763Z,83.65
2022-12-24T12:45:05.823Z,83.46
2022-12-24T12:48:00.107Z,83.31
2022-12-24T12:51:11.427Z,83.47
2022-12-24T12:54:12.216Z,83.31
2022-12-24T12:56:47.461Z,83.44
2022-12-24T12:59:43.761Z,83.70
2022-12-24T13:02:35.409Z,83.57
2022-12-24T13:05:28.736Z,83.29
2022-12-24T13:08:12.655Z,83.45
2022-12-24T13:11:02.573Z,83.89
2022-12-24T13:13:43.339Z,83.64
2022-12-24T13:16:27.335Z,83.60
2022-12-24T13:19:08.752Z,83.47
2022-12-24T13:21:45.841Z,83.78
2022-12-24T13:24:21.207Z,83.74
2022-12-24T13:27:10.177Z,83.79
2022-12-24T13:30:08.768Z,83.55
2022-12-24T13:32:52.305Z,83.88
2022-12-24T13:35:30.739Z,83.92
2022-12-24T13:38:30.324Z,83.75
2022-12-24T13:41:41.063Z,83.89
2022-12-24T13:44:17.918Z,84.09
2022-12-24T13:46:53.157Z,83.95
2022-12-24T13:49:40.616Z,83.92
2022-12-24T13:52:15.980Z,84.46
2022-12-24T13:54:57.098Z,83.52
2022-12-24T13:57:49.109Z,83.51
2022-12-24T14:00:24.439Z,83.56
2022-12-24T14:03:17.636Z,83.10
2022-12-24T14:05:52.922Z,83.34
2022-12-24T14:08:27.734Z,82.96
2022-12-24T14:11:20.746Z,82.15
2022-12-24T14:13:56.186Z,82.51
2022-12-24T14:16:33.291Z,81.93
2022-12-24T14:19:13.974Z,81.82
2022-12-24T14:22:06.723Z,81.54
2022-12-24T14:24:46.888Z,82.00
2022-12-24T14:27:25.022Z,80.55
2022-12-24T14:30:09.450Z,81.57
2022-12-24T14:32:42.609Z,81.50
2022-12-24T14:35:26.972Z,81.88
2022-12-24T14:38:04.686Z,82.12
2022-12-24T14:40:45.924Z,82.15
2022-12-24T14:43:35.848Z,81.99
2022-12-24T14:46:26.018Z,82.38
2022-12-24T14:49:24.911Z,81.96
2022-12-24T14:52:02.773Z,81.87
2022-12-24T14:54:39.945Z,81.66
2022-12-24T14:57:16.105Z,81.62
2022-12-24T15:00:00.438Z,81.83
2022-12-24T15:02:39.961Z,81.26
2022-12-24T15:05:21.018Z,80.81
2022-12-24T15:07:59.136Z,80.88
2022-12-24T15:10:39.983Z,80.68
2022-12-24T15:13:17.620Z,81.22
2022-12-24T15:15:54.370Z,81.65
2022-12-24T15:18:29.947Z,82.22
2022-12-24T15:21:05.228Z,82.79
2022-12-24T15:23:38.853Z,82.50
2022-12-24T15:26:16.558Z,82.53
2022-12-24T15:28:48.836Z,82.16
2022-12-24T15:31:24.313Z,82.10
2022-12-24T15:34:00.186Z,82.39
2022-12-24T15:36:38.228Z,82.09
2022-12-24T15:39:13.814Z,82.15
2022-12-24T15:42:05.593Z,81.86
2022-12-24T15:44:40.446Z,82.16
2022-12-24T15:47:21.399Z,82.18
2022-12-24T15:49:54.324Z,82.01
2022-12-24T15:52:27.663Z,82.26
2022-12-24T15:55:01.489Z,81.41
2022-12-24T15:57:35.180Z,81.24
2022-12-24T16:00:10.138Z,80.67
2022-12-24T16:02:46.467Z,80.70
2022-12-24T16:05:25.007Z,80.66
2022-12-24T16:08:12.095Z,81.33
2022-12-24T16:11:08.444Z,81.08
2022-12-24T16:13:46.650Z,81.24
2022-12-24T16:16:23.645Z,80.52
2022-12-24T16:19:01.269Z,80.91
2022-12-24T16:21:38.918Z,80.92
2022-12-24T16:24:19.978Z,81.11
2022-12-24T16:26:52.873Z,80.45
2022-12-24T16:29:27.046Z,80.96
2022-12-24T16:32:00.419Z,80.97
2022-12-24T16:34:34.243Z,79.65
2022-12-24T16:37:06.486Z,80.25
2022-12-24T16:39:38.367Z,80.32
2022-12-24T16:42:28.474Z,81.11
2022-12-24T16:45:00.736Z,81.09
2022-12-24T16:47:42.337Z,81.13
2022-12-24T16:50:11.957Z,81.17
2022-12-24T16:52:44.655Z,81.26
2022-12-24T16:55:18.396Z,81.03
2022-12-24T16:57:51.303Z,81.58
2022-12-24T17:00:26.126Z,81.97
2022-12-24T17:02:58.929Z,81.23
2022-12-24T17:05:31.441Z,80.95
2022-12-24T17:08:03.907Z,81.05
2022-12-24T17:10:36.401Z,81.00
2022-12-24T17:13:08.478Z,81.16
2022-12-24T17:15:42.715Z,80.97
2022-12-24T17:18:15.232Z,81.10
2022-12-24T17:20:47.338Z,80.71
2022-12-24T17:23:20.195Z,81.35
2022-12-24T17:25:52.869Z,81.28
2022-12-24T17:28:24.823Z,81.34
2022-12-24T17:30:58.639Z,80.42
2022-12-24T17:33:30.794Z,80.38
2022-12-24T17:36:03.005Z,80.01
2022-12-24T17:38:35.183Z,79.88
2022-12-24T17:41:09.825Z,79.49
2022-12-24T17:43:42.355Z,79.62
2022-12-24T17:46:17.343Z,79.62
2022-12-24T17:48:49.854Z,79.47
2022-12-24T17:51:24.185Z,79.04
2022-12-24T17:53:57.427Z,78.78
2022-12-24T17:56:30.225Z,79.08
2022-12-24T17:59:02.091Z,78.72
2022-12-24T18:01:34.460Z,78.05
2022-12-24T18:04:07.261Z,77.81
2022-12-24T18:06:48.740Z,77.42
2022-12-24T18:09:16.409Z,77.17
2022-12-24T18:11:48.802Z,77.13
2022-12-24T18:14:20.747Z,76.98
2022-12-24T18:16:52.908Z,76.78
2022-12-24T18:19:25.002Z,75.72
2022-12-24T18:21:57.142Z,75.79
2022-12-24T18:24:29.679Z,75.85
2022-12-24T18:27:02.917Z,75.95
2022-12-24T18:29:36.713Z,75.54
2022-12-24T18:32:09.848Z,75.80
2022-12-24T18:34:41.784Z,75.84
2022-12-24T18:37:13.802Z,75.81
2022-12-24T18:39:46.143Z,75.83
2022-12-24T18:42:19.119Z,75.65
2022-12-24T18:44:51.737Z,75.76
2022-12-24T18:47:25.558Z,75.94
2022-12-24T18:49:57.779Z,75.51
2022-12-24T18:52:31.355Z,75.50
2022-12-24T18:55:03.863Z,75.21
2022-12-24T18:57:36.333Z,75.33
2022-12-24T19:00:09.232Z,75.15
2022-12-24T19:02:41.302Z,76.14
2022-12-24T19:05:14.944Z,76.66
2022-12-24T19:07:47.187Z,76.97
2022-12-24T19:10:19.164Z,77.32
2022-12-24T19:12:51.199Z,77.64
2022-12-24T19:15:23.093Z,77.82
2022-12-24T19:17:59.558Z,77.88
2022-12-24T19:20:31.927Z,77.95
2022-12-24T19:23:03.813Z,78.13
2022-12-24T19:25:36.473Z,78.17
2022-12-24T19:28:11.128Z,78.28
2022-12-24T19:30:43.736Z,78.30
2022-12-24T19:33:15.894Z,78.02
2022-12-24T19:35:47.747Z,77.48
2022-12-24T19:38:19.859Z,77.12
2022-12-24T19:40:51.984Z,77.13
2022-12-24T19:43:24.303Z,77.16
2022-12-24T19:46:00.602Z,77.16
2022-12-24T19:48:32.936Z,77.30
2022-12-24T19:51:07.002Z,77.70
2022-12-24T19:53:39.928Z,77.56
2022-12-24T19:56:13.487Z,77.70
2022-12-24T19:58:45.570Z,77.87
2022-12-24T20:01:20.037Z,78.01
2022-12-24T20:03:53.462Z,78.39
2022-12-24T20:06:28.431Z,78.65
2022-12-24T20:09:02.318Z,78.84
2022-12-24T20:11:35.137Z,79.15
2022-12-24T20:14:07.909Z,79.28
2022-12-24T20:16:40.231Z,79.35
2022-12-24T20:19:15.117Z,79.40
2022-12-24T20:21:47.326Z,79.35
2022-12-24T20:24:19.513Z,79.46
2022-12-24T20:26:51.460Z,79.59
2022-12-24T20:29:23.603Z,79.77
2022-12-24T20:31:55.922Z,79.79
2022-12-24T20:34:27.877Z,79.86
2022-12-24T20:36:59.844Z,79.93
2022-12-24T20:39:32.198Z,80.05
2022-12-24T20:42:04.762Z,80.13
2022-12-24T20:44:36.708Z,80.27
2022-12-24T20:47:08.631Z,80.56
2022-12-24T20:49:40.479Z,80.77
2022-12-24T20:52:12.742Z,80.89
2022-12-24T20:54:45.010Z,80.84
2022-12-24T20:57:21.752Z,80.94
2022-12-24T20:59:50.814Z,81.01
2022-12-24T21:02:22.925Z,81.05
2022-12-24T21:05:01.482Z,81.19
2022-12-24T21:07:28.640Z,81.36
2022-12-24T21:10:00.635Z,81.42
2022-12-24T21:12:52.971Z,81.47
2022-12-24T21:15:27.932Z,81.26
2022-12-24T21:18:00.644Z,81.19
2022-12-24T21:20:32.675Z,81.18
2022-12-24T21:23:05.946Z,81.10
2022-12-24T21:25:38.047Z,80.95
2022-12-24T21:28:11.463Z,80.87
2022-12-24T21:30:43.656Z,80.73
2022-12-24T21:33:15.849Z,80.67
2022-12-24T21:35:47.906Z,80.31
2022-12-24T21:38:19.920Z,80.18
2022-12-24T21:41:03.783Z,80.16
2022-12-24T21:43:36.380Z,80.01
2022-12-24T21:46:10.244Z,79.93
2022-12-24T21:49:00.050Z,79.53
2022-12-24T21:51:32.408Z,79.17
2022-12-24T21:54:21.888Z,78.83
2022-12-24T21:57:13.556Z,78.74
2022-12-24T21:59:46.441Z,78.73
2022-12-24T22:02:18.781Z,78.47
2022-12-24T22:04:50.988Z,78.21
2022-12-24T22:07:43.453Z,78.24
2022-12-24T22:10:34.033Z,78.04
2022-12-24T22:13:07.644Z,77.99
2022-12-24T22:15:45.431Z,77.87
2022-12-24T22:18:20.074Z,77.82
2022-12-24T22:20:52.430Z,77.60
2022-12-24T22:23:24.296Z,78.49
2022-12-24T22:25:56.251Z,77.49
2022-12-24T22:28:30.031Z,77.06
2022-12-24T22:31:02.522Z,77.06
2022-12-24T22:33:36.317Z,77.01
2022-12-24T22:36:10.362Z,77.10
2022-12-24T22:38:44.400Z,76.87
2022-12-24T22:41:16.532Z,76.63
2022-12-24T22:43:49.897Z,76.60
2022-12-24T22:46:22.172Z,76.68
2022-12-24T22:48:54.804Z,76.84
2022-12-24T22:51:26.768Z,76.85
2022-12-24T22:53:58.826Z,76.69
2022-12-24T22:56:35.530Z,76.45
2022-12-24T22:59:05.000Z,76.44
2022-12-24T23:01:40.018Z,76.11
2022-12-24T23:04:12.802Z,75.92
2022-12-24T23:06:44.928Z,75.53
2022-12-24T23:09:18.246Z,75.48
2022-12-24T23:11:50.288Z,75.02
2022-12-24T23:14:41.378Z,74.71
2022-12-24T23:17:13.635Z,74.09
2022-12-24T23:19:45.703Z,73.53
2022-12-24T23:22:17.940Z,73.61
2022-12-24T23:24:49.940Z,73.21
2022-12-24T23:27:22.356Z,73.10
2022-12-24T23:29:54.288Z,72.85
2022-12-24T23:32:26.544Z,72.37
2022-12-24T23:34:58.784Z,72.52
2022-12-24T23:37:35.405Z,72.01
2022-12-24T23:40:06.645Z,71.76
2022-12-24T23:42:38.870Z,71.88
2022-12-24T23:45:11.125Z,71.79
2022-12-24T23:47:43.489Z,71.53
2022-12-24T23:50:15.564Z,71.02
2022-12-24T23:52:47.801Z,70.90
2022-12-24T23:55:19.929Z,70.72
2022-12-24T23:57:51.905Z,70.77
